sensor_id;sensor_type;location;lat;lon;timestamp;pressure;altitude;pressure_sealevel;temperature;humidity
8717;BME280;4395;48.554;8.820;2023-08-06T00:01:51;95212.41;;;14.78;100.00
8717;BME280;4395;48.554;8.820;2023-08-06T00:03:55;95203.06;;;14.70;100.00
8717;BME280;4395;48.554;8.820;2023-08-06T00:05:57;95200.66;;;14.69;100.00
8717;BME280;4395;48.554;8.820;2023-08-06T00:08:00;95212.56;;;14.68;100.00
8717;BME280;4395;48.554;8.820;2023-08-06T00:10:06;95205.53;;;14.67;100.00
8717;BME280;4395;48.554;8.820;2023-08-06T00:12:09;95207.91;;;14.55;100.00
8717;BME280;4395;48.554;8.820;2023-08-06T00:14:12;95216.00;;;14.55;100.00
8717;BME280;4395;48.554;8.820;2023-08-06T00:16:16;95204.25;;;14.45;100.00
8717;BME280;4395;48.554;8.820;2023-08-06T00:18:19;95199.44;;;14.42;100.00
8717;BME280;4395;48.554;8.820;2023-08-06T00:20:22;95188.88;;;14.22;100.00
8717;BME280;4395;48.554;8.820;2023-08-06T00:22:25;95181.81;;;14.26;100.00
8717;BME280;4395;48.554;8.820;2023-08-06T00:24:27;95146.31;;;14.14;100.00
8717;BME280;4395;48.554;8.820;2023-08-06T00:26:31;95196.72;;;14.42;100.00
8717;BME280;4395;48.554;8.820;2023-08-06T00:28:34;95190.78;;;14.22;100.00
8717;BME280;4395;48.554;8.820;2023-08-06T00:30:37;95179.25;;;14.16;100.00
8717;BME280;4395;48.554;8.820;2023-08-06T00:32:40;95186.19;;;14.22;100.00
8717;BME280;4395;48.554;8.820;2023-08-06T00:34:43;95183.13;;;14.10;100.00
8717;BME280;4395;48.554;8.820;2023-08-06T00:36:45;95180.78;;;14.22;100.00
8717;BME280;4395;48.554;8.820;2023-08-06T00:38:48;95180.94;;;14.31;100.00
8717;BME280;4395;48.554;8.820;2023-08-06T00:40:51;95171.00;;;14.26;100.00
8717;BME280;4395;48.554;8.820;2023-08-06T00:42:56;95172.59;;;14.27;100.00
8717;BME280;4395;48.554;8.820;2023-08-06T00:44:59;95174.00;;;14.25;100.00
8717;BME280;4395;48.554;8.820;2023-08-06T00:47:02;95166.38;;;14.27;100.00
8717;BME280;4395;48.554;8.820;2023-08-06T00:49:05;95158.66;;;14.20;100.00
8717;BME280;4395;48.554;8.820;2023-08-06T00:51:09;95157.34;;;14.18;100.00
8717;BME280;4395;48.554;8.820;2023-08-06T00:53:12;95153.31;;;14.15;100.00
8717;BME280;4395;48.554;8.820;2023-08-06T00:55:15;95160.34;;;14.16;100.00
8717;BME280;4395;48.554;8.820;2023-08-06T00:57:18;95156.16;;;14.24;100.00
8717;BME280;4395;48.554;8.820;2023-08-06T00:59:24;95154.41;;;14.14;100.00
8717;BME280;4395;48.554;8.820;2023-08-06T01:01:27;95144.34;;;14.01;100.00
8717;BME280;4395;48.554;8.820;2023-08-06T01:03:30;95155.94;;;14.01;100.00
8717;BME280;4395;48.554;8.820;2023-08-06T01:05:35;95156.81;;;13.97;100.00
8717;BME280;4395;48.554;8.820;2023-08-06T01:07:48;95144.84;;;14.03;100.00
8717;BME280;4395;48.554;8.820;2023-08-06T01:09:59;95147.84;;;14.01;100.00
8717;BME280;4395;48.554;8.820;2023-08-06T01:12:11;95111.56;;;13.70;100.00
8717;BME280;4395;48.554;8.820;2023-08-06T01:14:20;95151.41;;;13.97;100.00
8717;BME280;4395;48.554;8.820;2023-08-06T01:16:27;95146.47;;;14.04;100.00
8717;BME280;4395;48.554;8.820;2023-08-06T01:18:31;95134.34;;;14.01;100.00
8717;BME280;4395;48.554;8.820;2023-08-06T01:20:36;95142.00;;;13.94;100.00
8717;BME280;4395;48.554;8.820;2023-08-06T01:22:40;95133.03;;;13.99;100.00
8717;BME280;4395;48.554;8.820;2023-08-06T01:24:46;95142.50;;;13.96;100.00
8717;BME280;4395;48.554;8.820;2023-08-06T01:26:57;95129.94;;;13.87;100.00
8717;BME280;4395;48.554;8.820;2023-08-06T01:29:07;95135.34;;;13.87;100.00
8717;BME280;4395;48.554;8.820;2023-08-06T01:31:15;95118.13;;;13.82;100.00
8717;BME280;4395;48.554;8.820;2023-08-06T01:33:21;95125.50;;;13.77;100.00
8717;BME280;4395;48.554;8.820;2023-08-06T01:35:27;95127.53;;;13.85;100.00
8717;BME280;4395;48.554;8.820;2023-08-06T01:37:34;95140.25;;;13.84;100.00
8717;BME280;4395;48.554;8.820;2023-08-06T01:39:39;95130.81;;;13.82;100.00
8717;BME280;4395;48.554;8.820;2023-08-06T01:41:41;95117.25;;;13.68;100.00
8717;BME280;4395;48.554;8.820;2023-08-06T01:43:44;95127.47;;;13.71;100.00
8717;BME280;4395;48.554;8.820;2023-08-06T01:45:47;95122.94;;;13.67;100.00
8717;BME280;4395;48.554;8.820;2023-08-06T01:47:50;95128.56;;;13.70;100.00
8717;BME280;4395;48.554;8.820;2023-08-06T01:49:53;95127.97;;;13.73;100.00
8717;BME280;4395;48.554;8.820;2023-08-06T01:51:55;95133.38;;;13.73;100.00
8717;BME280;4395;48.554;8.820;2023-08-06T01:54:00;95142.78;;;13.76;100.00
8717;BME280;4395;48.554;8.820;2023-08-06T01:56:03;95136.59;;;13.75;100.00
8717;BME280;4395;48.554;8.820;2023-08-06T01:58:05;95144.69;;;13.75;100.00
8717;BME280;4395;48.554;8.820;2023-08-06T02:00:09;95142.50;;;13.77;100.00
8717;BME280;4395;48.554;8.820;2023-08-06T02:02:14;95138.94;;;13.82;100.00
8717;BME280;4395;48.554;8.820;2023-08-06T02:04:17;95126.06;;;13.74;100.00
8717;BME280;4395;48.554;8.820;2023-08-06T02:06:20;95125.78;;;13.75;100.00
8717;BME280;4395;48.554;8.820;2023-08-06T02:08:22;95111.47;;;13.75;100.00
8717;BME280;4395;48.554;8.820;2023-08-06T02:10:26;95119.81;;;13.78;100.00
8717;BME280;4395;48.554;8.820;2023-08-06T02:12:29;95122.00;;;13.76;100.00
8717;BME280;4395;48.554;8.820;2023-08-06T02:14:32;95114.34;;;13.83;100.00
8717;BME280;4395;48.554;8.820;2023-08-06T02:16:35;95114.91;;;13.80;100.00
8717;BME280;4395;48.554;8.820;2023-08-06T02:18:38;95114.34;;;13.83;100.00
8717;BME280;4395;48.554;8.820;2023-08-06T02:20:41;95103.81;;;13.82;100.00
8717;BME280;4395;48.554;8.820;2023-08-06T02:22:43;95108.63;;;13.66;100.00
8717;BME280;4395;48.554;8.820;2023-08-06T02:24:46;95105.06;;;13.71;100.00
8717;BME280;4395;48.554;8.820;2023-08-06T02:26:52;95100.97;;;13.73;100.00
8717;BME280;4395;48.554;8.820;2023-08-06T02:28:57;95106.88;;;13.75;100.00
8717;BME280;4395;48.554;8.820;2023-08-06T02:31:00;95097.91;;;13.80;100.00
8717;BME280;4395;48.554;8.820;2023-08-06T02:33:03;95097.91;;;13.80;100.00
8717;BME280;4395;48.554;8.820;2023-08-06T02:35:06;95099.66;;;13.90;100.00
8717;BME280;4395;48.554;8.820;2023-08-06T02:37:09;95091.25;;;13.72;100.00
8717;BME280;4395;48.554;8.820;2023-08-06T02:39:13;95097.84;;;13.85;100.00
8717;BME280;4395;48.554;8.820;2023-08-06T02:41:15;95091.13;;;13.82;100.00
8717;BME280;4395;48.554;8.820;2023-08-06T02:43:20;95082.81;;;13.79;100.00
8717;BME280;4395;48.554;8.820;2023-08-06T02:45:22;95069.22;;;13.65;100.00
8717;BME280;4395;48.554;8.820;2023-08-06T02:47:25;95079.22;;;13.65;100.00
8717;BME280;4395;48.554;8.820;2023-08-06T02:49:28;95069.00;;;13.80;100.00
8717;BME280;4395;48.554;8.820;2023-08-06T02:51:31;95069.59;;;13.77;100.00
8717;BME280;4395;48.554;8.820;2023-08-06T02:53:33;95061.34;;;13.88;100.00
8717;BME280;4395;48.554;8.820;2023-08-06T02:55:45;95062.38;;;13.92;100.00
8717;BME280;4395;48.554;8.820;2023-08-06T02:57:48;95077.03;;;13.86;100.00
8717;BME280;4395;48.554;8.820;2023-08-06T02:59:53;95067.63;;;13.83;100.00
8717;BME280;4395;48.554;8.820;2023-08-06T03:01:57;95059.75;;;13.87;100.00
8717;BME280;4395;48.554;8.820;2023-08-06T03:04:09;95063.91;;;13.79;100.00
8717;BME280;4395;48.554;8.820;2023-08-06T03:06:16;95058.06;;;13.72;100.00
8717;BME280;4395;48.554;8.820;2023-08-06T03:08:23;95057.84;;;13.68;100.00
8717;BME280;4395;48.554;8.820;2023-08-06T03:10:26;95049.66;;;13.73;100.00
8717;BME280;4395;48.554;8.820;2023-08-06T03:12:32;95055.06;;;13.73;100.00
8717;BME280;4395;48.554;8.820;2023-08-06T03:14:37;95059.97;;;13.71;100.00
8717;BME280;4395;48.554;8.820;2023-08-06T03:16:43;95051.50;;;13.78;100.00
8717;BME280;4395;48.554;8.820;2023-08-06T03:18:49;95059.81;;;13.81;100.00
8717;BME280;4395;48.554;8.820;2023-08-06T03:20:52;95065.81;;;13.78;100.00
8717;BME280;4395;48.554;8.820;2023-08-06T03:22:55;95059.09;;;13.76;100.00
8717;BME280;4395;48.554;8.820;2023-08-06T03:24:58;95058.28;;;13.75;100.00
8717;BME280;4395;48.554;8.820;2023-08-06T03:27:01;95052.22;;;13.83;100.00
8717;BME280;4395;48.554;8.820;2023-08-06T03:29:06;95053.25;;;13.88;100.00
8717;BME280;4395;48.554;8.820;2023-08-06T03:31:09;95015.81;;;13.62;100.00
8717;BME280;4395;48.554;8.820;2023-08-06T03:33:17;95041.78;;;13.96;100.00
8717;BME280;4395;48.554;8.820;2023-08-06T03:35:20;95040.16;;;13.95;100.00
8717;BME280;4395;48.554;8.820;2023-08-06T03:37:23;95044.09;;;14.02;100.00
8717;BME280;4395;48.554;8.820;2023-08-06T03:39:26;95048.50;;;13.98;100.00
8717;BME280;4395;48.554;8.820;2023-08-06T03:41:29;95051.03;;;14.08;100.00
8717;BME280;4395;48.554;8.820;2023-08-06T03:43:33;95048.03;;;14.10;100.00
8717;BME280;4395;48.554;8.820;2023-08-06T03:45:40;95042.13;;;14.08;100.00
8717;BME280;4395;48.554;8.820;2023-08-06T03:47:43;95038.63;;;14.07;100.00
8717;BME280;4395;48.554;8.820;2023-08-06T03:49:48;95050.72;;;14.10;100.00
8717;BME280;4395;48.554;8.820;2023-08-06T03:51:51;95050.91;;;14.00;100.00
8717;BME280;4395;48.554;8.820;2023-08-06T03:53:55;95045.13;;;13.88;100.00
8717;BME280;4395;48.554;8.820;2023-08-06T03:55:57;95046.44;;;13.90;100.00
8717;BME280;4395;48.554;8.820;2023-08-06T03:58:03;95040.38;;;13.98;100.00
8717;BME280;4395;48.554;8.820;2023-08-06T04:00:07;95041.03;;;14.09;100.00
8717;BME280;4395;48.554;8.820;2023-08-06T04:02:19;95046.84;;;14.16;100.00
8717;BME280;4395;48.554;8.820;2023-08-06T04:04:22;95050.56;;;14.20;100.00
8717;BME280;4395;48.554;8.820;2023-08-06T04:06:26;95038.88;;;14.25;100.00
8717;BME280;4395;48.554;8.820;2023-08-06T04:08:29;95040.28;;;14.22;100.00
8717;BME280;4395;48.554;8.820;2023-08-06T04:10:31;95043.25;;;14.21;100.00
8717;BME280;4395;48.554;8.820;2023-08-06T04:12:35;95048.28;;;14.27;100.00
8717;BME280;4395;48.554;8.820;2023-08-06T04:14:40;95039.84;;;14.15;100.00
8717;BME280;4395;48.554;8.820;2023-08-06T04:16:43;95065.00;;;13.97;100.00
8717;BME280;4395;48.554;8.820;2023-08-06T04:18:46;95068.06;;;13.71;100.00
8717;BME280;4395;48.554;8.820;2023-08-06T04:20:49;95059.75;;;13.87;100.00
8717;BME280;4395;48.554;8.820;2023-08-06T04:22:55;95056.16;;;13.91;100.00
8717;BME280;4395;48.554;8.820;2023-08-06T04:24:58;95054.41;;;14.00;100.00
8717;BME280;4395;48.554;8.820;2023-08-06T04:27:00;95060.38;;;13.97;100.00
8717;BME280;4395;48.554;8.820;2023-08-06T04:29:03;95053.75;;;13.90;100.00
8717;BME280;4395;48.554;8.820;2023-08-06T04:31:07;95056.69;;;13.74;100.00
8717;BME280;4395;48.554;8.820;2023-08-06T04:33:10;95060.09;;;13.80;100.00
8717;BME280;4395;48.554;8.820;2023-08-06T04:35:12;95046.44;;;13.34;100.00
8717;BME280;4395;48.554;8.820;2023-08-06T04:37:15;95051.03;;;13.33;100.00
8717;BME280;4395;48.554;8.820;2023-08-06T04:39:19;95065.03;;;13.35;100.00
8717;BME280;4395;48.554;8.820;2023-08-06T04:41:21;95061.72;;;13.19;100.00
8717;BME280;4395;48.554;8.820;2023-08-06T04:43:24;95054.47;;;12.91;100.00
8717;BME280;4395;48.554;8.820;2023-08-06T04:45:27;95061.81;;;13.09;100.00
8717;BME280;4395;48.554;8.820;2023-08-06T04:47:30;95060.97;;;13.38;100.00
8717;BME280;4395;48.554;8.820;2023-08-06T04:49:32;95062.94;;;13.51;100.00
8717;BME280;4395;48.554;8.820;2023-08-06T04:51:34;95072.66;;;13.71;100.00
8717;BME280;4395;48.554;8.820;2023-08-06T04:53:37;95062.06;;;13.74;100.00
8717;BME280;4395;48.554;8.820;2023-08-06T04:55:41;95072.28;;;13.77;100.00
8717;BME280;4395;48.554;8.820;2023-08-06T04:57:44;95065.22;;;13.63;100.00
8717;BME280;4395;48.554;8.820;2023-08-06T04:59:47;95065.06;;;13.73;100.00
8717;BME280;4395;48.554;8.820;2023-08-06T05:01:50;95077.69;;;13.77;100.00
8717;BME280;4395;48.554;8.820;2023-08-06T05:03:53;95065.72;;;13.83;100.00
8717;BME280;4395;48.554;8.820;2023-08-06T05:05:56;95075.06;;;13.72;100.00
8717;BME280;4395;48.554;8.820;2023-08-06T05:07:59;95071.63;;;13.86;100.00
8717;BME280;4395;48.554;8.820;2023-08-06T05:10:01;95070.91;;;13.99;100.00
8717;BME280;4395;48.554;8.820;2023-08-06T05:12:07;95081.47;;;13.95;100.00
8717;BME280;4395;48.554;8.820;2023-08-06T05:14:10;95074.09;;;14.01;100.00
8717;BME280;4395;48.554;8.820;2023-08-06T05:16:13;95072.94;;;14.07;100.00
8717;BME280;4395;48.554;8.820;2023-08-06T05:18:16;95069.06;;;14.13;100.00
8717;BME280;4395;48.554;8.820;2023-08-06T05:20:20;95071.69;;;14.18;100.00
8717;BME280;4395;48.554;8.820;2023-08-06T05:22:22;95065.38;;;14.23;100.00
8717;BME280;4395;48.554;8.820;2023-08-06T05:24:25;95071.50;;;14.28;100.00
8717;BME280;4395;48.554;8.820;2023-08-06T05:26:28;95073.53;;;14.36;100.00
8717;BME280;4395;48.554;8.820;2023-08-06T05:28:32;95074.72;;;14.30;100.00
8717;BME280;4395;48.554;8.820;2023-08-06T05:30:39;95078.66;;;14.38;100.00
8717;BME280;4395;48.554;8.820;2023-08-06T05:32:41;95079.53;;;14.33;100.00
8717;BME280;4395;48.554;8.820;2023-08-06T05:34:44;95092.50;;;14.18;100.00
8717;BME280;4395;48.554;8.820;2023-08-06T05:36:47;95092.72;;;14.21;100.00
8717;BME280;4395;48.554;8.820;2023-08-06T05:38:50;95092.88;;;14.11;100.00
8717;BME280;4395;48.554;8.820;2023-08-06T05:40:53;95097.53;;;14.05;100.00
8717;BME280;4395;48.554;8.820;2023-08-06T05:42:56;95101.13;;;14.01;100.00
8717;BME280;4395;48.554;8.820;2023-08-06T05:44:59;95102.94;;;13.87;100.00
8717;BME280;4395;48.554;8.820;2023-08-06T05:47:02;95095.13;;;13.85;100.00
8717;BME280;4395;48.554;8.820;2023-08-06T05:49:05;95092.38;;;13.90;100.00
8717;BME280;4395;48.554;8.820;2023-08-06T05:51:08;95087.75;;;13.91;100.00
8717;BME280;4395;48.554;8.820;2023-08-06T05:53:14;95089.50;;;14.00;100.00
8717;BME280;4395;48.554;8.820;2023-08-06T05:55:16;95087.31;;;14.02;100.00
8717;BME280;4395;48.554;8.820;2023-08-06T05:57:19;95091.31;;;14.24;100.00
8717;BME280;4395;48.554;8.820;2023-08-06T05:59:22;95087.31;;;14.21;100.00
8717;BME280;4395;48.554;8.820;2023-08-06T06:01:26;95093.44;;;14.08;100.00
8717;BME280;4395;48.554;8.820;2023-08-06T06:03:28;95096.22;;;14.03;100.00
8717;BME280;4395;48.554;8.820;2023-08-06T06:05:31;95102.94;;;14.24;100.00
8717;BME280;4395;48.554;8.820;2023-08-06T06:07:34;95098.41;;;14.01;100.00
8717;BME280;4395;48.554;8.820;2023-08-06T06:09:35;95094.25;;;13.90;100.00
8717;BME280;4395;48.554;8.820;2023-08-06T06:11:38;95097.47;;;13.92;100.00
8717;BME280;4395;48.554;8.820;2023-08-06T06:13:41;95101.56;;;13.89;100.00
8717;BME280;4395;48.554;8.820;2023-08-06T06:15:44;95094.34;;;13.84;100.00
8717;BME280;4395;48.554;8.820;2023-08-06T06:17:50;95099.38;;;13.91;100.00
8717;BME280;4395;48.554;8.820;2023-08-06T06:19:52;95103.97;;;13.91;100.00
8717;BME280;4395;48.554;8.820;2023-08-06T06:21:55;95111.28;;;13.90;100.00
8717;BME280;4395;48.554;8.820;2023-08-06T06:23:59;95111.78;;;13.92;100.00
8717;BME280;4395;48.554;8.820;2023-08-06T06:26:02;95113.59;;;13.97;100.00
8717;BME280;4395;48.554;8.820;2023-08-06T06:28:05;95111.41;;;13.99;100.00
8717;BME280;4395;48.554;8.820;2023-08-06T06:30:08;95109.06;;;13.73;100.00
8717;BME280;4395;48.554;8.820;2023-08-06T06:32:13;95114.63;;;14.01;100.00
8717;BME280;4395;48.554;8.820;2023-08-06T06:34:17;95113.81;;;14.19;100.00
8717;BME280;4395;48.554;8.820;2023-08-06T06:36:20;95130.91;;;14.14;100.00
8717;BME280;4395;48.554;8.820;2023-08-06T06:38:23;95126.88;;;14.12;100.00
8717;BME280;4395;48.554;8.820;2023-08-06T06:40:25;95117.75;;;14.08;100.00
8717;BME280;4395;48.554;8.820;2023-08-06T06:42:27;95108.41;;;14.00;100.00
8717;BME280;4395;48.554;8.820;2023-08-06T06:44:34;95117.75;;;14.08;100.00
8717;BME280;4395;48.554;8.820;2023-08-06T06:46:37;95123.59;;;14.15;100.00
8717;BME280;4395;48.554;8.820;2023-08-06T06:48:40;95124.53;;;14.24;100.00
8717;BME280;4395;48.554;8.820;2023-08-06T06:50:46;95127.75;;;14.26;100.00
8717;BME280;4395;48.554;8.820;2023-08-06T06:52:49;95121.91;;;14.19;100.00
8717;BME280;4395;48.554;8.820;2023-08-06T06:54:52;95120.16;;;14.28;100.00
8717;BME280;4395;48.554;8.820;2023-08-06T06:56:55;95122.72;;;14.20;100.00
8717;BME280;4395;48.554;8.820;2023-08-06T06:58:58;95120.09;;;14.14;100.00
8717;BME280;4395;48.554;8.820;2023-08-06T07:01:00;95123.16;;;14.08;100.00
8717;BME280;4395;48.554;8.820;2023-08-06T07:03:03;95114.41;;;13.97;100.00
8717;BME280;4395;48.554;8.820;2023-08-06T07:05:06;95104.19;;;13.75;100.00
8717;BME280;4395;48.554;8.820;2023-08-06T07:07:12;95128.94;;;13.82;100.00
8717;BME280;4395;48.554;8.820;2023-08-06T07:09:15;95123.66;;;13.72;100.00
8717;BME280;4395;48.554;8.820;2023-08-06T07:11:18;95119.16;;;13.87;100.00
8717;BME280;4395;48.554;8.820;2023-08-06T07:13:20;95149.59;;;14.11;100.00
8717;BME280;4395;48.554;8.820;2023-08-06T07:15:24;95132.22;;;13.98;100.00
8717;BME280;4395;48.554;8.820;2023-08-06T07:17:27;95133.81;;;13.99;100.00
8717;BME280;4395;48.554;8.820;2023-08-06T07:19:29;95121.50;;;13.93;100.00
8717;BME280;4395;48.554;8.820;2023-08-06T07:21:32;95127.19;;;13.92;100.00
8717;BME280;4395;48.554;8.820;2023-08-06T07:23:36;95133.75;;;13.86;100.00
8717;BME280;4395;48.554;8.820;2023-08-06T07:25:39;95132.22;;;13.79;100.00
8717;BME280;4395;48.554;8.820;2023-08-06T07:27:42;95133.25;;;14.02;100.00
8717;BME280;4395;48.554;8.820;2023-08-06T07:29:45;95135.22;;;13.97;100.00
8717;BME280;4395;48.554;8.820;2023-08-06T07:31:49;95135.22;;;13.97;100.00
8717;BME280;4395;48.554;8.820;2023-08-06T07:33:53;95130.63;;;13.97;100.00
8717;BME280;4395;48.554;8.820;2023-08-06T07:35:55;95138.34;;;14.23;100.00
8717;BME280;4395;48.554;8.820;2023-08-06T07:37:58;95144.41;;;14.33;100.00
8717;BME280;4395;48.554;8.820;2023-08-06T07:40:03;95147.91;;;14.15;100.00
8717;BME280;4395;48.554;8.820;2023-08-06T07:42:06;95146.25;;;14.19;100.00
8717;BME280;4395;48.554;8.820;2023-08-06T07:44:09;95138.94;;;14.20;100.00
8717;BME280;4395;48.554;8.820;2023-08-06T07:46:12;95141.63;;;14.20;100.00
8717;BME280;4395;48.554;8.820;2023-08-06T07:48:15;95144.13;;;14.16;100.00
8717;BME280;4395;48.554;8.820;2023-08-06T07:50:16;95141.19;;;14.31;100.00
8717;BME280;4395;48.554;8.820;2023-08-06T07:52:19;95137.13;;;13.54;100.00
8717;BME280;4395;48.554;8.820;2023-08-06T07:54:22;95131.13;;;13.80;100.00
8717;BME280;4395;48.554;8.820;2023-08-06T07:56:27;95149.75;;;14.20;100.00
8717;BME280;4395;48.554;8.820;2023-08-06T07:58:29;95155.22;;;14.33;100.00
8717;BME280;4395;48.554;8.820;2023-08-06T08:00:33;95155.38;;;14.23;100.00
8717;BME280;4395;48.554;8.820;2023-08-06T08:02:36;95156.97;;;14.24;100.00
8717;BME280;4395;48.554;8.820;2023-08-06T08:04:38;95162.81;;;14.31;100.00
8717;BME280;4395;48.554;8.820;2023-08-06T08:06:41;95166.19;;;14.23;100.00
8717;BME280;4395;48.554;8.820;2023-08-06T08:08:44;95164.06;;;14.20;100.00
8717;BME280;4395;48.554;8.820;2023-08-06T08:10:47;95169.47;;;14.20;100.00
8717;BME280;4395;48.554;8.820;2023-08-06T08:12:51;95168.00;;;14.28;100.00
8717;BME280;4395;48.554;8.820;2023-08-06T08:14:54;95152.66;;;14.23;100.00
8717;BME280;4395;48.554;8.820;2023-08-06T08:16:57;95152.66;;;14.04;100.00
8717;BME280;4395;48.554;8.820;2023-08-06T08:19:00;95155.28;;;14.09;100.00
8717;BME280;4395;48.554;8.820;2023-08-06T08:21:04;95153.16;;;14.25;100.00
8717;BME280;4395;48.554;8.820;2023-08-06T08:23:07;95151.84;;;14.41;100.00
8717;BME280;4395;48.554;8.820;2023-08-06T08:25:10;95154.94;;;14.54;100.00
8717;BME280;4395;48.554;8.820;2023-08-06T08:27:11;95154.50;;;14.79;100.00
8717;BME280;4395;48.554;8.820;2023-08-06T08:29:15;95159.56;;;14.67;100.00
8717;BME280;4395;48.554;8.820;2023-08-06T08:31:18;95150.91;;;14.51;100.00
8717;BME280;4395;48.554;8.820;2023-08-06T08:33:21;95158.66;;;14.58;100.00
8717;BME280;4395;48.554;8.820;2023-08-06T08:35:24;95161.06;;;14.40;100.00
8717;BME280;4395;48.554;8.820;2023-08-06T08:37:27;95159.81;;;14.52;100.00
8717;BME280;4395;48.554;8.820;2023-08-06T08:39:29;95156.38;;;14.27;100.00
8717;BME280;4395;48.554;8.820;2023-08-06T08:41:33;95156.31;;;14.51;100.00
8717;BME280;4395;48.554;8.820;2023-08-06T08:43:36;95157.63;;;14.54;100.00
8717;BME280;4395;48.554;8.820;2023-08-06T08:45:42;95157.63;;;14.54;100.00
8717;BME280;4395;48.554;8.820;2023-08-06T08:47:45;95164.00;;;14.76;100.00
8717;BME280;4395;48.554;8.820;2023-08-06T08:49:52;95165.31;;;14.79;100.00
8717;BME280;4395;48.554;8.820;2023-08-06T08:51:56;95167.31;;;14.73;100.00
8717;BME280;4395;48.554;8.820;2023-08-06T08:54:02;95170.22;;;14.77;100.00
8717;BME280;4395;48.554;8.820;2023-08-06T08:56:05;95180.44;;;14.80;100.00
8717;BME280;4395;48.554;8.820;2023-08-06T08:58:08;95175.63;;;14.77;100.00
8717;BME280;4395;48.554;8.820;2023-08-06T09:00:11;95180.34;;;15.18;100.00
8717;BME280;4395;48.554;8.820;2023-08-06T09:02:17;95172.53;;;15.30;100.00
8717;BME280;4395;48.554;8.820;2023-08-06T09:04:21;95182.56;;;15.43;100.00
8717;BME280;4395;48.554;8.820;2023-08-06T09:06:25;95171.53;;;15.26;100.00
8717;BME280;4395;48.554;8.820;2023-08-06T09:08:34;95179.38;;;15.41;100.00
8717;BME280;4395;48.554;8.820;2023-08-06T09:10:39;95161.31;;;15.50;100.00
8717;BME280;4395;48.554;8.820;2023-08-06T09:12:44;95168.22;;;15.56;100.00
8717;BME280;4395;48.554;8.820;2023-08-06T09:14:47;95183.84;;;15.78;100.00
8717;BME280;4395;48.554;8.820;2023-08-06T09:16:51;95188.41;;;15.50;100.00
8717;BME280;4395;48.554;8.820;2023-08-06T09:19:06;95177.25;;;15.38;100.00
8717;BME280;4395;48.554;8.820;2023-08-06T09:21:13;95189.97;;;15.24;100.00
8717;BME280;4395;48.554;8.820;2023-08-06T09:23:17;95185.94;;;15.07;100.00
8717;BME280;4395;48.554;8.820;2023-08-06T09:25:22;95187.84;;;15.21;100.00
8717;BME280;4395;48.554;8.820;2023-08-06T09:27:26;95191.94;;;15.04;100.00
8717;BME280;4395;48.554;8.820;2023-08-06T09:29:31;95203.34;;;15.01;100.00
8717;BME280;4395;48.554;8.820;2023-08-06T09:31:40;95196.38;;;15.14;100.00
8717;BME280;4395;48.554;8.820;2023-08-06T09:33:43;95197.41;;;15.32;100.00
8717;BME280;4395;48.554;8.820;2023-08-06T09:35:48;95201.75;;;15.00;100.00
8717;BME280;4395;48.554;8.820;2023-08-06T09:37:51;95197.94;;;15.01;100.00
8717;BME280;4395;48.554;8.820;2023-08-06T09:39:54;95197.34;;;15.04;100.00
8717;BME280;4395;48.554;8.820;2023-08-06T09:41:58;95207.34;;;14.90;100.00
8717;BME280;4395;48.554;8.820;2023-08-06T09:44:01;95190.69;;;14.83;100.00
8717;BME280;4395;48.554;8.820;2023-08-06T09:46:10;95196.84;;;14.70;100.00
8717;BME280;4395;48.554;8.820;2023-08-06T09:48:14;95191.44;;;14.70;100.00
8717;BME280;4395;48.554;8.820;2023-08-06T09:50:18;95189.09;;;14.63;100.00
8717;BME280;4395;48.554;8.820;2023-08-06T09:52:22;95182.41;;;14.42;100.00
8717;BME280;4395;48.554;8.820;2023-08-06T09:54:25;95190.00;;;14.59;100.00
8717;BME280;4395;48.554;8.820;2023-08-06T09:56:29;95192.03;;;14.67;100.00
8717;BME280;4395;48.554;8.820;2023-08-06T09:58:39;95194.81;;;14.62;100.00
8717;BME280;4395;48.554;8.820;2023-08-06T10:00:41;95187.25;;;14.77;100.00
8717;BME280;4395;48.554;8.820;2023-08-06T10:02:45;95194.41;;;14.87;100.00
8717;BME280;4395;48.554;8.820;2023-08-06T10:04:48;95192.00;;;14.86;100.00
8717;BME280;4395;48.554;8.820;2023-08-06T10:06:56;95196.06;;;14.51;100.00
8717;BME280;4395;48.554;8.820;2023-08-06T10:09:02;95194.22;;;14.65;100.00
8717;BME280;4395;48.554;8.820;2023-08-06T10:11:05;95198.91;;;14.92;100.00
8717;BME280;4395;48.554;8.820;2023-08-06T10:13:08;95211.81;;;15.13;100.00
8717;BME280;4395;48.554;8.820;2023-08-06T10:15:13;95207.50;;;15.12;100.00
8717;BME280;4395;48.554;8.820;2023-08-06T10:17:18;95216.28;;;14.72;100.00
8717;BME280;4395;48.554;8.820;2023-08-06T10:19:21;95238.00;;;14.67;100.00
8717;BME280;4395;48.554;8.820;2023-08-06T10:21:24;95207.50;;;14.80;100.00
8717;BME280;4395;48.554;8.820;2023-08-06T10:23:36;95221.56;;;14.44;100.00
8717;BME280;4395;48.554;8.820;2023-08-06T10:25:42;95212.84;;;14.29;100.00
8717;BME280;4395;48.554;8.820;2023-08-06T10:27:54;95202.97;;;14.75;100.00
8717;BME280;4395;48.554;8.820;2023-08-06T10:30:22;95215.41;;;14.58;100.00
8717;BME280;4395;48.554;8.820;2023-08-06T10:32:48;95219.06;;;14.67;100.00
8717;BME280;4395;48.554;8.820;2023-08-06T10:34:56;95214.72;;;14.85;100.00
8717;BME280;4395;48.554;8.820;2023-08-06T10:37:01;95226.66;;;14.27;100.00
8717;BME280;4395;48.554;8.820;2023-08-06T10:39:04;95223.03;;;14.56;100.00
8717;BME280;4395;48.554;8.820;2023-08-06T10:41:21;95228.44;;;14.56;100.00
8717;BME280;4395;48.554;8.820;2023-08-06T10:43:25;95230.19;;;14.46;100.00
8717;BME280;4395;48.554;8.820;2023-08-06T10:45:28;95228.28;;;14.66;100.00
8717;BME280;4395;48.554;8.820;2023-08-06T10:47:37;95229.59;;;14.50;100.00
8717;BME280;4395;48.554;8.820;2023-08-06T10:49:44;95235.88;;;14.64;100.00
8717;BME280;4395;48.554;8.820;2023-08-06T10:51:47;95233.31;;;14.54;100.00
8717;BME280;4395;48.554;8.820;2023-08-06T10:53:50;95238.88;;;14.62;100.00
8717;BME280;4395;48.554;8.820;2023-08-06T10:55:53;95241.22;;;14.50;100.00
8717;BME280;4395;48.554;8.820;2023-08-06T10:57:57;95252.84;;;14.51;100.00
8717;BME280;4395;48.554;8.820;2023-08-06T11:00:00;95257.25;;;14.41;100.00
8717;BME280;4395;48.554;8.820;2023-08-06T11:02:17;95259.63;;;14.05;100.00
8717;BME280;4395;48.554;8.820;2023-08-06T11:04:21;95256.75;;;13.97;100.00
8717;BME280;4395;48.554;8.820;2023-08-06T11:06:24;95265.06;;;13.81;100.00